sensor_id;sensor_type;location;lat;lon;timestamp;P1;durP1;ratioP1;P2;durP2;ratioP2
18473;SDS011;30265;52.408;13.500;2023-03-01T00:00:50;40.95;;;12.27;;
18473;SDS011;30265;52.408;13.500;2023-03-01T00:11:12;25.80;;;12.15;;
18473;SDS011;30265;52.408;13.500;2023-03-01T00:21:36;34.22;;;14.10;;
18473;SDS011;30265;52.408;13.500;2023-03-01T00:31:57;22.65;;;12.50;;
18473;SDS011;30265;52.408;13.500;2023-03-01T00:42:22;25.25;;;10.55;;
18473;SDS011;30265;52.408;13.500;2023-03-01T00:52:45;22.23;;;11.82;;
18473;SDS011;30265;52.408;13.500;2023-03-01T01:03:12;28.52;;;12.98;;
18473;SDS011;30265;52.408;13.500;2023-03-01T01:13:33;21.17;;;10.60;;
18473;SDS011;30265;52.408;13.500;2023-03-01T01:23:56;25.17;;;12.38;;
18473;SDS011;30265;52.408;13.500;2023-03-01T01:34:19;24.00;;;11.40;;
18473;SDS011;30265;52.408;13.500;2023-03-01T01:44:44;22.85;;;12.25;;
18473;SDS011;30265;52.408;13.500;2023-03-01T01:55:08;6.72;;;6.05;;
18473;SDS011;30265;52.408;13.500;2023-03-01T02:05:34;27.05;;;11.18;;
18473;SDS011;30265;52.408;13.500;2023-03-01T02:16:02;22.08;;;10.77;;
18473;SDS011;30265;52.408;13.500;2023-03-01T02:26:28;20.50;;;11.18;;
18473;SDS011;30265;52.408;13.500;2023-03-01T02:37:00;24.10;;;12.13;;
18473;SDS011;30265;52.408;13.500;2023-03-01T02:47:24;24.98;;;9.48;;
18473;SDS011;30265;52.408;13.500;2023-03-01T02:57:46;49.97;;;12.40;;
18473;SDS011;30265;52.408;13.500;2023-03-01T03:08:10;20.48;;;10.95;;
18473;SDS011;30265;52.408;13.500;2023-03-01T03:18:35;26.65;;;10.80;;
18473;SDS011;30265;52.408;13.500;2023-03-01T03:28:56;18.85;;;9.63;;
18473;SDS011;30265;52.408;13.500;2023-03-01T03:39:21;21.58;;;11.88;;
18473;SDS011;30265;52.408;13.500;2023-03-01T03:49:43;21.30;;;7.60;;
18473;SDS011;30265;52.408;13.500;2023-03-01T04:00:09;19.17;;;8.05;;
18473;SDS011;30265;52.408;13.500;2023-03-01T04:10:35;17.58;;;9.38;;
18473;SDS011;30265;52.408;13.500;2023-03-01T04:20:59;12.73;;;8.45;;
18473;SDS011;30265;52.408;13.500;2023-03-01T04:31:21;22.25;;;8.98;;
18473;SDS011;30265;52.408;13.500;2023-03-01T04:41:44;15.23;;;8.57;;
18473;SDS011;30265;52.408;13.500;2023-03-01T04:52:07;13.57;;;7.45;;
18473;SDS011;30265;52.408;13.500;2023-03-01T05:02:30;13.27;;;8.32;;
18473;SDS011;30265;52.408;13.500;2023-03-01T05:12:52;17.92;;;9.35;;
18473;SDS011;30265;52.408;13.500;2023-03-01T05:23:15;19.10;;;7.47;;
18473;SDS011;30265;52.408;13.500;2023-03-01T05:33:36;15.00;;;8.93;;
18473;SDS011;30265;52.408;13.500;2023-03-01T05:44:00;19.67;;;9.20;;
18473;SDS011;30265;52.408;13.500;2023-03-01T05:54:21;16.80;;;9.05;;
18473;SDS011;30265;52.408;13.500;2023-03-01T06:04:44;14.65;;;7.53;;
18473;SDS011;30265;52.408;13.500;2023-03-01T06:15:07;14.93;;;11.35;;
18473;SDS011;30265;52.408;13.500;2023-03-01T06:25:31;24.00;;;10.18;;
18473;SDS011;30265;52.408;13.500;2023-03-01T06:35:55;17.52;;;8.05;;
18473;SDS011;30265;52.408;13.500;2023-03-01T06:46:19;17.15;;;10.70;;
18473;SDS011;30265;52.408;13.500;2023-03-01T06:56:41;19.15;;;10.05;;
18473;SDS011;30265;52.408;13.500;2023-03-01T07:07:04;22.58;;;11.82;;
18473;SDS011;30265;52.408;13.500;2023-03-01T07:17:26;25.75;;;14.05;;
18473;SDS011;30265;52.408;13.500;2023-03-01T07:27:50;29.08;;;14.20;;
18473;SDS011;30265;52.408;13.500;2023-03-01T07:38:12;26.83;;;16.38;;
18473;SDS011;30265;52.408;13.500;2023-03-01T07:48:35;25.02;;;13.50;;
18473;SDS011;30265;52.408;13.500;2023-03-01T07:58:56;29.05;;;12.93;;
18473;SDS011;30265;52.408;13.500;2023-03-01T08:09:21;26.10;;;12.80;;
18473;SDS011;30265;52.408;13.500;2023-03-01T08:19:43;20.98;;;12.30;;
18473;SDS011;30265;52.408;13.500;2023-03-01T08:30:07;19.73;;;9.55;;
18473;SDS011;30265;52.408;13.500;2023-03-01T08:40:29;17.38;;;9.18;;
18473;SDS011;30265;52.408;13.500;2023-03-01T08:50:53;19.08;;;9.23;;
18473;SDS011;30265;52.408;13.500;2023-03-01T09:01:16;14.63;;;6.93;;
18473;SDS011;30265;52.408;13.500;2023-03-01T09:11:40;13.55;;;6.75;;
18473;SDS011;30265;52.408;13.500;2023-03-01T09:22:02;13.10;;;5.38;;
18473;SDS011;30265;52.408;13.500;2023-03-01T09:32:26;9.02;;;4.85;;
18473;SDS011;30265;52.408;13.500;2023-03-01T09:42:52;12.32;;;4.90;;
18473;SDS011;30265;52.408;13.500;2023-03-01T10:05:47;13.75;;;6.00;;
18473;SDS011;30265;52.408;13.500;2023-03-01T10:16:17;10.02;;;4.55;;
18473;SDS011;30265;52.408;13.500;2023-03-01T10:26:47;10.02;;;4.07;;
18473;SDS011;30265;52.408;13.500;2023-03-01T10:37:13;9.15;;;4.22;;
18473;SDS011;30265;52.408;13.500;2023-03-01T10:47:39;12.90;;;5.10;;
18473;SDS011;30265;52.408;13.500;2023-03-01T10:58:08;10.25;;;4.10;;
18473;SDS011;30265;52.408;13.500;2023-03-01T11:08:40;9.07;;;4.40;;
18473;SDS011;30265;52.408;13.500;2023-03-01T11:19:17;9.55;;;4.93;;
18473;SDS011;30265;52.408;13.500;2023-03-01T11:29:42;7.20;;;3.97;;
18473;SDS011;30265;52.408;13.500;2023-03-01T11:40:13;9.85;;;4.90;;
18473;SDS011;30265;52.408;13.500;2023-03-01T11:50:41;11.60;;;5.57;;
18473;SDS011;30265;52.408;13.500;2023-03-01T12:01:10;7.85;;;3.95;;
18473;SDS011;30265;52.408;13.500;2023-03-01T12:11:52;9.85;;;4.70;;
18473;SDS011;30265;52.408;13.500;2023-03-01T12:22:29;11.18;;;4.43;;
18473;SDS011;30265;52.408;13.500;2023-03-01T12:32:55;9.90;;;4.40;;
18473;SDS011;30265;52.408;13.500;2023-03-01T12:43:28;10.93;;;3.53;;
18473;SDS011;30265;52.408;13.500;2023-03-01T12:54:05;7.57;;;3.45;;
18473;SDS011;30265;52.408;13.500;2023-03-01T13:04:40;8.50;;;4.03;;
18473;SDS011;30265;52.408;13.500;2023-03-01T13:15:31;6.75;;;2.88;;
18473;SDS011;30265;52.408;13.500;2023-03-01T13:26:05;5.10;;;2.63;;
18473;SDS011;30265;52.408;13.500;2023-03-01T13:36:48;5.03;;;2.72;;
18473;SDS011;30265;52.408;13.500;2023-03-01T13:47:13;9.63;;;4.85;;
18473;SDS011;30265;52.408;13.500;2023-03-01T13:57:41;5.25;;;2.60;;
18473;SDS011;30265;52.408;13.500;2023-03-01T14:08:05;7.17;;;2.67;;
18473;SDS011;30265;52.408;13.500;2023-03-01T14:18:45;5.50;;;2.90;;
18473;SDS011;30265;52.408;13.500;2023-03-01T14:29:24;4.57;;;2.47;;
18473;SDS011;30265;52.408;13.500;2023-03-01T14:39:48;6.38;;;3.33;;
18473;SDS011;30265;52.408;13.500;2023-03-01T14:50:15;4.82;;;2.95;;
18473;SDS011;30265;52.408;13.500;2023-03-01T15:00:50;7.53;;;2.55;;
18473;SDS011;30265;52.408;13.500;2023-03-01T15:11:19;4.35;;;2.22;;
18473;SDS011;30265;52.408;13.500;2023-03-01T15:21:46;5.03;;;2.17;;
18473;SDS011;30265;52.408;13.500;2023-03-01T15:32:23;6.80;;;2.70;;
18473;SDS011;30265;52.408;13.500;2023-03-01T15:42:49;5.68;;;2.63;;
18473;SDS011;30265;52.408;13.500;2023-03-01T15:53:12;6.13;;;2.60;;
18473;SDS011;30265;52.408;13.500;2023-03-01T16:03:36;5.13;;;2.63;;
18473;SDS011;30265;52.408;13.500;2023-03-01T16:13:58;4.95;;;2.38;;
18473;SDS011;30265;52.408;13.500;2023-03-01T16:24:21;5.05;;;2.88;;
18473;SDS011;30265;52.408;13.500;2023-03-01T16:34:42;25.77;;;7.43;;
18473;SDS011;30265;52.408;13.500;2023-03-01T16:45:05;7.20;;;3.50;;
18473;SDS011;30265;52.408;13.500;2023-03-01T16:55:42;8.55;;;4.45;;
18473;SDS011;30265;52.408;13.500;2023-03-01T17:06:08;17.90;;;7.18;;
18473;SDS011;30265;52.408;13.500;2023-03-01T17:16:31;22.10;;;9.70;;
18473;SDS011;30265;52.408;13.500;2023-03-01T17:26:54;18.70;;;10.40;;
18473;SDS011;30265;52.408;13.500;2023-03-01T17:37:15;15.73;;;6.22;;
18473;SDS011;30265;52.408;13.500;2023-03-01T17:47:38;26.65;;;9.55;;
18473;SDS011;30265;52.408;13.500;2023-03-01T17:58:01;14.90;;;7.20;;
18473;SDS011;30265;52.408;13.500;2023-03-01T18:08:24;18.10;;;7.10;;
18473;SDS011;30265;52.408;13.500;2023-03-01T18:18:46;11.70;;;6.93;;
18473;SDS011;30265;52.408;13.500;2023-03-01T18:29:09;11.85;;;6.68;;
18473;SDS011;30265;52.408;13.500;2023-03-01T18:39:30;19.58;;;8.05;;
18473;SDS011;30265;52.408;13.500;2023-03-01T18:50:05;22.67;;;10.25;;
18473;SDS011;30265;52.408;13.500;2023-03-01T19:01:15;14.10;;;7.50;;
18473;SDS011;30265;52.408;13.500;2023-03-01T19:11:55;17.60;;;7.18;;
18473;SDS011;30265;52.408;13.500;2023-03-01T19:22:41;17.38;;;7.95;;
18473;SDS011;30265;52.408;13.500;2023-03-01T19:33:04;22.23;;;10.68;;
18473;SDS011;30265;52.408;13.500;2023-03-01T19:43:25;22.80;;;9.35;;
18473;SDS011;30265;52.408;13.500;2023-03-01T19:53:48;55.28;;;21.60;;
18473;SDS011;30265;52.408;13.500;2023-03-01T20:04:10;52.40;;;21.45;;
18473;SDS011;30265;52.408;13.500;2023-03-01T20:14:34;26.98;;;12.77;;
18473;SDS011;30265;52.408;13.500;2023-03-01T20:24:55;28.73;;;16.65;;
18473;SDS011;30265;52.408;13.500;2023-03-01T20:35:18;28.67;;;15.68;;
18473;SDS011;30265;52.408;13.500;2023-03-01T20:45:40;39.30;;;18.13;;
18473;SDS011;30265;52.408;13.500;2023-03-01T20:56:04;32.22;;;13.68;;
18473;SDS011;30265;52.408;13.500;2023-03-01T21:06:26;41.92;;;17.55;;
18473;SDS011;30265;52.408;13.500;2023-03-01T21:16:49;31.65;;;14.95;;
18473;SDS011;30265;52.408;13.500;2023-03-01T21:27:11;54.08;;;26.05;;
18473;SDS011;30265;52.408;13.500;2023-03-01T21:37:34;51.05;;;20.80;;
18473;SDS011;30265;52.408;13.500;2023-03-01T21:47:56;30.63;;;13.88;;
18473;SDS011;30265;52.408;13.500;2023-03-01T21:58:19;28.50;;;13.18;;
18473;SDS011;30265;52.408;13.500;2023-03-01T22:08:41;40.58;;;14.88;;
18473;SDS011;30265;52.408;13.500;2023-03-01T22:19:04;148.82;;;32.75;;
18473;SDS011;30265;52.408;13.500;2023-03-01T22:29:27;73.80;;;22.92;;
18473;SDS011;30265;52.408;13.500;2023-03-01T22:39:50;118.05;;;37.92;;
18473;SDS011;30265;52.408;13.500;2023-03-01T22:50:13;33.78;;;14.13;;
18473;SDS011;30265;52.408;13.500;2023-03-01T23:00:36;43.45;;;18.33;;
18473;SDS011;30265;52.408;13.500;2023-03-01T23:10:57;42.72;;;16.77;;
18473;SDS011;30265;52.408;13.500;2023-03-01T23:21:20;31.02;;;12.27;;
18473;SDS011;30265;52.408;13.500;2023-03-01T23:31:42;51.78;;;14.13;;
18473;SDS011;30265;52.408;13.500;2023-03-01T23:42:05;29.08;;;13.50;;
18473;SDS011;30265;52.408;13.500;2023-03-01T23:52:29;29.02;;;11.57;;
